Time;durP1;ratioP1;P1;durP2;ratioP2;P2;SDS_P1;SDS_P2;PMS_P1;PMS_P2;Temp;Humidity;BMP_temperature;BMP_pressure;BME280_temperature;BME280_humidity;BME280_pressure;Samples;Min_cycle;Max_cycle;Signal;HPM_P1;HPM_P2
2022/03/25 00:00:40;;;;;;;45.95;20.95;;;;;;;4.80;58.44;97703.72;4949469;28;20046;-89
2022/03/25 00:03:06;;;;;;;51.40;21.90;;;;;;;4.59;58.10;97683.31;4967736;28;20034;-90
2022/03/25 00:05:32;;;;;;;53.05;22.58;;;;;;;4.36;58.81;97665.63;4972053;28;20031;-89
2022/03/25 00:08:01;;;;;;;56.30;23.38;;;;;;;4.52;58.61;97695.06;4958147;28;20581;-90
2022/03/25 00:10:27;;;;;;;51.63;23.88;;;;;;;4.47;58.74;97683.75;4974559;28;20054;-89
2022/03/25 00:13:05;;;;;;;55.30;27.92;;;;;;;4.48;58.98;97679.31;4958466;28;20041;-89
2022/03/25 00:15:30;;;;;;;76.68;37.35;;;;;;;4.46;59.07;97671.41;4959538;28;20038;-87
2022/03/25 00:17:56;;;;;;;82.32;35.42;;;;;;;4.39;59.70;97677.88;4975616;28;20093;-83
2022/03/25 00:20:22;;;;;;;77.90;36.83;;;;;;;4.37;59.83;97679.69;4943606;28;20061;-85
2022/03/25 00:22:48;;;;;;;86.93;34.47;;;;;;;4.31;59.60;97682.56;4959919;28;20498;-85
2022/03/25 00:25:13;;;;;;;53.30;24.55;;;;;;;4.23;60.50;97704.00;4943891;28;20030;-86
2022/03/25 00:27:39;;;;;;;39.35;19.45;;;;;;;4.05;60.96;97709.06;4956877;28;20118;-85
2022/03/25 00:30:05;;;;;;;38.63;18.50;;;;;;;3.87;62.11;97709.69;4978773;28;20082;-85
2022/03/25 00:32:31;;;;;;;43.60;17.15;;;;;;;3.65;63.86;97702.44;4962086;28;20042;-86
2022/03/25 00:34:57;;;;;;;48.85;17.80;;;;;;;3.92;63.68;97718.31;4962285;28;20030;-86
2022/03/25 00:37:24;;;;;;;39.35;17.73;;;;;;;4.09;62.18;97716.00;4978677;28;20039;-85
2022/03/25 00:39:49;;;;;;;34.72;18.08;;;;;;;4.07;62.61;97720.44;4979317;28;20038;-85
2022/03/25 00:42:16;;;;;;;35.78;17.17;;;;;;;4.04;62.49;97704.69;4979084;28;20061;-87
2022/03/25 00:44:42;;;;;;;34.85;17.63;;;;;;;4.27;61.66;97702.13;4962526;28;20038;-85
2022/03/25 00:47:07;;;;;;;45.97;22.13;;;;;;;4.22;60.70;97693.47;4977616;28;20117;-87
2022/03/25 00:49:33;;;;;;;44.72;21.23;;;;;;;4.53;60.72;97720.59;4978220;28;20377;-86
2022/03/25 00:51:59;;;;;;;53.33;22.45;;;;;;;4.47;60.19;97712.88;4979028;28;20042;-87
2022/03/25 00:54:25;;;;;;;45.15;23.65;;;;;;;4.37;60.75;97693.78;4962118;28;20100;-87
2022/03/25 00:56:51;;;;;;;61.42;24.80;;;;;;;4.53;60.57;97707.38;4962161;28;20097;-85
2022/03/25 00:59:16;;;;;;;54.28;26.13;;;;;;;4.46;60.42;97687.31;4960336;28;20042;-86
2022/03/25 01:01:42;;;;;;;65.15;28.17;;;;;;;4.55;60.43;97679.06;4958626;28;20371;-86
2022/03/25 01:04:08;;;;;;;64.95;30.98;;;;;;;4.69;59.62;97697.97;4973592;28;20145;-87
2022/03/25 01:06:34;;;;;;;64.93;30.60;;;;;;;4.58;59.75;97681.59;4961711;28;20035;-86
2022/03/25 01:09:01;;;;;;;79.63;35.08;;;;;;;4.77;59.83;97703.81;4957353;28;20074;-86
2022/03/25 01:11:27;;;;;;;76.05;35.55;;;;;;;4.78;59.12;97680.84;4942580;28;20525;-87
2022/03/25 01:16:37;;;;;;;73.10;32.22;;;;;;;4.72;58.88;97694.31;4961476;28;20038;-86
2022/03/25 01:19:04;;;;;;;72.90;32.03;;;;;;;4.47;59.50;97662.56;4942901;28;20035;-85
2022/03/25 01:21:29;;;;;;;65.97;31.33;;;;;;;4.57;59.92;97674.56;4953001;28;20095;-87
2022/03/25 01:23:56;;;;;;;75.05;29.85;;;;;;;4.71;59.16;97698.75;4961883;28;20030;-86
2022/03/25 01:26:23;;;;;;;58.25;27.73;;;;;;;4.72;59.15;97713.75;4962765;28;20042;-86
2022/03/25 01:28:52;;;;;;;56.67;25.27;;;;;;;4.67;59.41;97705.09;4976579;28;20069;-86
2022/03/25 01:31:19;;;;;;;63.03;24.92;;;;;;;4.51;59.48;97701.25;4977780;28;20506;-86
2022/03/25 01:33:45;;;;;;;61.45;22.48;;;;;;;4.53;58.52;97693.25;4961266;28;20026;-86
2022/03/25 01:36:10;;;;;;;46.80;21.52;;;;;;;4.62;58.71;97703.50;4961346;28;20062;-85
2022/03/25 01:38:36;;;;;;;40.03;19.92;;;;;;;4.41;58.92;97683.09;4961385;28;20042;-85
2022/03/25 01:41:03;;;;;;;35.00;18.10;;;;;;;4.42;59.21;97703.38;4961429;28;20230;-87
2022/03/25 01:43:29;;;;;;;37.20;17.20;;;;;;;4.53;59.21;97723.25;4961614;28;20062;-85
2022/03/25 01:45:55;;;;;;;31.65;14.65;;;;;;;4.60;58.92;97738.03;4960763;28;20034;-86
2022/03/25 01:48:21;;;;;;;36.40;17.80;;;;;;;4.42;59.45;97698.94;4960899;28;20108;-87
2022/03/25 01:50:48;;;;;;;38.67;18.02;;;;;;;4.49;59.11;97718.97;4961328;28;20046;-87
2022/03/25 01:53:16;;;;;;;50.65;22.60;;;;;;;4.46;60.13;97742.06;4977391;28;20046;-85
2022/03/25 01:56:02;;;;;;;41.38;21.88;;;;;;;4.14;60.79;97695.53;4960880;28;20111;-84
2022/03/25 01:58:32;;;;;;;43.55;20.40;;;;;;;4.06;60.84;97692.28;4961235;28;20486;-85
2022/03/25 02:01:01;;;;;;;46.45;18.40;;;;;;;3.88;61.47;97708.78;4976768;28;20395;-85
2022/03/25 02:03:27;;;;;;;36.13;18.23;;;;;;;3.59;62.00;97692.06;4960922;28;20038;-87
2022/03/25 02:05:53;;;;;;;41.20;19.90;;;;;;;3.61;62.04;97706.09;4960505;28;20134;-85
2022/03/25 02:08:20;;;;;;;40.55;20.08;;;;;;;3.73;62.00;97711.00;4976304;28;20074;-85
2022/03/25 02:10:45;;;;;;;42.17;20.30;;;;;;;3.68;61.40;97686.47;4977141;28;20038;-86
2022/03/25 02:13:11;;;;;;;36.97;19.13;;;;;;;3.89;61.79;97721.94;4955006;28;20034;-87
2022/03/25 02:15:49;;;;;;;48.88;20.35;;;;;;;3.76;62.40;97710.00;4976516;28;20072;-86
2022/03/25 02:18:18;;;;;;;38.17;19.83;;;;;;;3.71;62.69;97714.59;4960963;28;20034;-86
2022/03/25 02:20:44;;;;;;;40.90;19.42;;;;;;;3.56;63.30;97715.09;4965438;28;20383;-86
2022/03/25 02:23:11;;;;;;;41.20;19.10;;;;;;;3.50;64.37;97712.63;4951513;28;20061;-87
2022/03/25 02:25:38;;;;;;;44.10;19.08;;;;;;;3.51;64.78;97725.78;4968206;28;20042;-86
2022/03/25 02:28:07;;;;;;;42.58;19.48;;;;;;;3.27;65.10;97678.97;4966670;28;20031;-85
2022/03/25 02:30:34;;;;;;;58.95;21.60;;;;;;;3.37;65.20;97703.34;4939192;28;20521;-86
2022/03/25 02:33:01;;;;;;;91.60;30.35;;;;;;;3.30;65.36;97694.75;4976212;28;20490;-85
2022/03/25 02:35:39;;;;;;;80.63;28.63;;;;;;;3.11;65.89;97685.63;4960383;28;20073;-85
2022/03/25 02:38:06;;;;;;;63.35;26.55;;;;;;;3.12;66.78;97716.44;4976045;28;20034;-85
2022/03/25 02:40:32;;;;;;;79.53;29.10;;;;;;;3.02;68.29;97725.53;4976475;28;20042;-85
2022/03/25 02:42:58;;;;;;;75.45;29.33;;;;;;;2.96;69.07;97712.53;4976257;28;20040;-86
2022/03/25 02:45:24;;;;;;;69.88;28.98;;;;;;;2.98;69.54;97716.00;4975986;28;20061;-85
2022/03/25 02:47:50;;;;;;;76.50;28.88;;;;;;;3.01;70.12;97735.28;4976220;28;20537;-86
2022/03/25 02:51:09;;;;;;;80.07;30.27;;;;;;;2.65;70.40;97696.69;4969194;28;20132;-90
2022/03/25 02:53:39;;;;;;;67.78;26.98;;;;;;;2.48;70.82;97654.94;5013528;28;20038;-89
2022/03/25 02:58:59;;;;;;;49.85;22.05;;;;;;;2.55;70.32;97635.34;5956249;23;20009;-90
2022/03/25 03:04:57;;;;;;;57.58;26.13;;;;;;;2.94;68.96;97687.94;5039239;28;20128;-82
2022/03/25 03:07:31;;;;;;;58.55;24.30;;;;;;;2.87;68.94;97699.59;5030657;28;20112;-92
2022/03/25 03:13:44;;;;;;;63.63;23.13;;;;;;;2.56;69.10;97652.06;5055580;28;20080;-89
2022/03/25 03:30:40;;;;;;;45.10;20.25;;;;;;;2.84;70.24;97742.81;5035530;28;20065;-91
2022/03/25 03:49:46;;;;;;;48.65;18.65;;;;;;;2.65;70.63;97742.44;4975685;29;20147;-90
2022/03/25 03:52:12;;;;;;;;;;;;;;;2.63;70.63;97733.72;4973585;29;20043;-91
2022/03/25 03:58:29;;;;;;;58.53;23.42;;;;;;;2.61;71.69;97724.97;4975165;28;20083;-90
2022/03/25 04:04:23;;;;;;;47.45;22.88;;;;;;;2.70;70.99;97729.13;4976583;29;20079;-91
2022/03/25 04:06:54;;;;;;;51.20;22.60;;;;;;;2.04;71.89;97634.19;4972387;29;20058;-90
2022/03/25 04:09:40;;;;;;;66.00;26.42;;;;;;;2.57;71.42;97725.97;4972849;28;20066;-90
2022/03/25 04:12:16;;;;;;;77.22;29.23;;;;;;;2.41;72.24;97697.38;4977991;29;20043;-90
2022/03/25 04:18:07;;;;;;;71.95;26.45;;;;;;;2.07;71.68;97642.00;4974843;29;20075;-91
2022/03/25 04:24:04;;;;;;;72.13;30.67;;;;;;;2.65;72.71;97726.59;4978603;29;20041;-91
2022/03/25 04:26:34;;;;;;;77.22;31.70;;;;;;;2.55;72.25;97709.28;5000117;28;20061;-89
2022/03/25 04:29:03;;;;;;;75.90;31.80;;;;;;;2.38;72.23;97673.72;5352881;23;20046;-91
2022/03/25 04:31:29;;;;;;;71.70;30.88;;;;;;;2.50;71.84;97692.72;5017353;28;20125;-88
2022/03/25 04:33:55;;;;;;;82.75;36.33;;;;;;;2.74;72.10;97731.63;5000517;28;20149;-89
2022/03/25 04:36:21;;;;;;;98.68;39.33;;;;;;;2.60;72.28;97702.13;4980125;28;20498;-89
2022/03/25 04:38:46;;;;;;;107.80;45.28;;;;;;;2.70;71.64;97698.31;4988178;28;20045;-89
2022/03/25 04:41:31;;;;;;;87.15;35.05;;;;;;;2.47;71.93;97684.00;4983471;28;20497;-83
2022/03/25 04:43:56;;;;;;;105.15;41.25;;;;;;;2.41;71.83;97684.19;4978379;28;20030;-83
2022/03/25 04:46:22;;;;;;;122.68;46.88;;;;;;;2.47;71.27;97684.88;4979712;28;20407;-85
2022/03/25 04:48:48;;;;;;;103.40;44.25;;;;;;;2.38;72.17;97706.25;4979225;28;20058;-85
2022/03/25 04:51:14;;;;;;;86.30;37.30;;;;;;;2.29;71.47;97666.91;4990203;28;20025;-86
2022/03/25 04:53:39;;;;;;;86.53;35.53;;;;;;;2.27;71.54;97683.72;4978271;28;20034;-85
2022/03/25 04:56:05;;;;;;;76.75;34.53;;;;;;;2.39;72.16;97715.91;4977768;28;20042;-85
2022/03/25 04:58:31;;;;;;;72.50;31.48;;;;;;;2.45;72.12;97742.13;4976519;28;20074;-85
2022/03/25 05:00:57;;;;;;;76.22;31.88;;;;;;;2.43;72.08;97711.41;4991439;28;20503;-87
2022/03/25 05:03:26;;;;;;;60.78;27.80;;;;;;;2.55;71.21;97714.56;4976493;28;20043;-85
2022/03/25 05:05:51;;;;;;;67.18;25.98;;;;;;;2.80;70.86;97724.47;4977582;28;20509;-84
2022/03/25 05:08:17;;;;;;;45.10;19.35;;;;;;;2.86;69.23;97705.78;4981314;28;20042;-88
2022/03/25 05:10:46;;;;;;;42.50;19.25;;;;;;;2.83;68.04;97651.25;4979076;28;20050;-89
2022/03/25 05:13:12;;;;;;;51.95;19.70;;;;;;;3.36;66.40;97697.19;4978658;28;20034;-86
2022/03/25 05:15:38;;;;;;;43.90;19.80;;;;;;;3.74;64.81;97683.63;4979791;28;20078;-85
2022/03/25 05:18:04;;;;;;;54.47;20.83;;;;;;;4.10;63.56;97662.13;4961834;28;20038;-86
2022/03/25 05:20:29;;;;;;;49.30;20.88;;;;;;;4.61;61.12;97685.91;4993496;28;20042;-86
2022/03/25 05:23:35;;;;;;;46.10;21.67;;;;;;;5.19;59.23;97668.69;4980049;28;20038;-85
2022/03/25 05:26:01;;;;;;;48.25;23.67;;;;;;;6.41;55.65;97673.38;4990768;28;20042;-84
2022/03/25 05:28:26;;;;;;;75.05;32.25;;;;;;;7.40;53.63;97680.38;4977022;28;20116;-83
2022/03/25 05:30:52;;;;;;;66.82;30.25;;;;;;;8.24;50.50;97671.78;4992800;28;20062;-84
2022/03/25 05:33:18;;;;;;;75.75;32.33;;;;;;;9.63;47.43;97667.78;4961193;28;20038;-86
2022/03/25 05:35:43;;;;;;;87.05;34.80;;;;;;;10.51;44.67;97608.34;4976611;28;20045;-86
2022/03/25 05:38:09;;;;;;;78.15;33.28;;;;;;;10.76;43.39;97628.16;4993202;28;20034;-85
2022/03/25 05:40:35;;;;;;;71.13;36.35;;;;;;;11.56;41.56;97635.56;4977007;28;20045;-86
2022/03/25 05:43:00;;;;;;;89.15;38.17;;;;;;;11.84;41.39;97615.91;4993188;28;20065;-88
2022/03/25 05:45:26;;;;;;;98.25;38.72;;;;;;;11.81;41.31;97646.41;4989708;28;20047;-87
2022/03/25 05:47:52;;;;;;;87.88;33.15;;;;;;;11.80;41.02;97634.00;4947953;28;20105;-87
2022/03/25 05:50:18;;;;;;;69.40;29.60;;;;;;;12.50;39.66;97622.09;4982977;28;20045;-86
2022/03/25 05:52:44;;;;;;;55.90;25.52;;;;;;;12.32;39.24;97604.56;4984575;28;20049;-85
2022/03/25 05:55:12;;;;;;;53.22;24.25;;;;;;;13.14;38.78;97647.16;4958814;28;20035;-79
2022/03/25 05:57:38;;;;;;;56.75;24.33;;;;;;;12.55;39.65;97653.13;4991468;28;20087;-75
2022/03/25 06:00:08;;;;;;;51.42;22.30;;;;;;;13.03;38.85;97625.56;4992482;28;20121;-85
2022/03/25 06:02:35;;;;;;;64.55;25.48;;;;;;;13.86;37.34;97634.78;4974785;28;20049;-86
2022/03/25 06:05:00;;;;;;;55.80;26.63;;;;;;;14.77;35.91;97630.53;4989549;28;20041;-86
2022/03/25 06:07:26;;;;;;;66.85;27.05;;;;;;;14.64;36.26;97642.25;4992851;28;20137;-84
2022/03/25 06:09:52;;;;;;;59.20;26.95;;;;;;;15.02;35.64;97627.66;4972197;28;20034;-85
2022/03/25 06:12:18;;;;;;;60.30;31.00;;;;;;;15.53;34.53;97630.78;4968494;28;20034;-86
2022/03/25 06:14:44;;;;;;;79.90;34.30;;;;;;;16.08;33.54;97594.75;4975881;28;20053;-87
2022/03/25 06:17:09;;;;;;;69.97;31.17;;;;;;;16.47;32.72;97602.19;4975259;28;20121;-86
2022/03/25 06:19:35;;;;;;;59.13;28.65;;;;;;;16.51;32.04;97617.16;4968908;28;20347;-85
2022/03/25 06:22:02;;;;;;;75.53;35.17;;;;;;;16.57;32.44;97605.88;4974926;28;20060;-86
2022/03/25 06:24:28;;;;;;;98.70;44.20;;;;;;;17.29;31.19;97612.13;4965907;28;20042;-86
2022/03/25 06:26:54;;;;;;;93.85;42.42;;;;;;;17.41;30.85;97631.00;4989256;28;20043;-84
2022/03/25 06:29:20;;;;;;;103.22;48.50;;;;;;;16.42;33.09;97620.63;4990303;28;20478;-85
2022/03/25 06:31:46;;;;;;;92.95;46.67;;;;;;;17.24;31.86;97635.16;4992374;28;20050;-85
2022/03/25 06:34:11;;;;;;;114.15;47.65;;;;;;;16.67;32.39;97620.28;4975205;28;20070;-85
2022/03/25 06:36:37;;;;;;;307.10;141.90;;;;;;;17.11;31.58;97608.34;4975896;28;20056;-86
2022/03/25 06:39:03;;;;;;;157.32;72.05;;;;;;;17.27;31.44;97621.38;4965842;28;20114;-84
2022/03/25 06:41:29;;;;;;;97.57;45.53;;;;;;;17.94;30.32;97601.84;4975333;28;20034;-84
2022/03/25 06:43:57;;;;;;;88.85;43.95;;;;;;;18.32;29.68;97604.63;4992602;28;20109;-85
2022/03/25 06:46:23;;;;;;;114.28;36.42;;;;;;;18.72;29.12;97597.25;4975542;28;20412;-84
2022/03/25 06:48:49;;;;;;;85.78;35.70;;;;;;;17.57;30.55;97604.31;4991608;28;20030;-84
2022/03/25 06:51:16;;;;;;;79.57;37.03;;;;;;;18.47;29.77;97607.78;4996385;28;20050;-85
2022/03/25 06:53:41;;;;;;;73.30;36.33;;;;;;;18.44;29.18;97603.50;4973362;28;20093;-84
2022/03/25 06:56:08;;;;;;;68.45;33.78;;;;;;;18.66;29.57;97633.06;4973188;28;20457;-85
2022/03/25 06:58:36;;;;;;;70.53;34.80;;;;;;;19.02;29.01;97617.03;4975738;28;20042;-86
2022/03/25 07:01:01;;;;;;;82.00;39.05;;;;;;;19.57;28.26;97613.47;4967713;28;20519;-85
2022/03/25 07:03:27;;;;;;;81.30;40.15;;;;;;;20.02;27.75;97589.97;4975555;28;20038;-84
2022/03/25 07:05:54;;;;;;;89.85;38.92;;;;;;;20.49;27.28;97571.63;4991583;28;20409;-85
2022/03/25 07:08:23;;;;;;;108.53;50.13;;;;;;;21.17;26.68;97590.88;4991718;28;20042;-85
2022/03/25 07:10:49;;;;;;;117.43;56.75;;;;;;;20.76;26.40;97597.00;4975094;28;20112;-85
2022/03/25 07:13:16;;;;;;;69.60;33.80;;;;;;;21.50;25.48;97579.16;4975783;28;20038;-85
2022/03/25 07:15:42;;;;;;;52.63;29.05;;;;;;;22.13;24.70;97585.09;4992138;28;20093;-86
2022/03/25 07:18:07;;;;;;;44.97;24.80;;;;;;;23.48;23.19;97571.88;4975282;28;20084;-86
2022/03/25 07:20:33;;;;;;;53.90;25.10;;;;;;;22.29;23.81;97561.63;4991843;28;20069;-86
2022/03/25 07:22:59;;;;;;;45.08;23.75;;;;;;;22.74;23.89;97567.50;4974967;28;20097;-83
2022/03/25 07:25:30;;;;;;;60.13;24.13;;;;;;;23.27;23.15;97579.72;4955580;28;20452;-82
2022/03/25 07:27:56;;;;;;;59.83;24.07;;;;;;;22.72;23.79;97577.72;4974689;28;20495;-82
2022/03/25 07:30:22;;;;;;;51.53;24.30;;;;;;;23.19;23.08;97566.97;4974601;28;20301;-82
2022/03/25 07:32:48;;;;;;;56.50;22.73;;;;;;;23.52;23.08;97589.63;4971279;28;20105;-83
2022/03/25 07:35:14;;;;;;;51.75;20.88;;;;;;;24.08;22.20;97559.34;4987782;28;20045;-83
2022/03/25 07:37:41;;;;;;;47.83;22.90;;;;;;;24.54;22.38;97589.50;4974322;28;20108;-83
2022/03/25 07:40:09;;;;;;;47.72;22.38;;;;;;;24.18;22.23;97581.84;4974481;28;20207;-83
2022/03/25 07:42:37;;;;;;;47.38;21.40;;;;;;;24.25;22.57;97604.72;4974156;28;20121;-82
2022/03/25 07:45:05;;;;;;;45.50;20.83;;;;;;;24.82;21.72;97578.91;4976088;28;20125;-82
2022/03/25 07:47:32;;;;;;;49.80;21.35;;;;;;;25.86;20.80;97555.09;4994491;28;20073;-82
2022/03/25 07:50:00;;;;;;;41.60;20.75;;;;;;;25.86;20.22;97569.66;4978592;28;20142;-82
2022/03/25 07:52:25;;;;;;;54.75;25.20;;;;;;;24.86;21.13;97561.06;4993943;28;20065;-82
2022/03/25 07:54:54;;;;;;;46.30;23.45;;;;;;;24.67;20.79;97570.63;4984534;28;20073;-83
2022/03/25 07:57:38;;;;;;;52.17;26.30;;;;;;;25.96;20.05;97568.53;4978427;28;20429;-82
2022/03/25 08:00:11;;;;;;;47.25;21.80;;;;;;;24.99;21.34;97585.94;4993648;28;20070;-82
2022/03/25 08:02:42;;;;;;;44.70;19.05;;;;;;;24.71;21.10;97593.84;4978540;28;20414;-82
2022/03/25 08:05:09;;;;;;;36.63;19.15;;;;;;;23.68;21.31;97567.72;4993802;28;20141;-82
2022/03/25 08:08:02;;;;;;;40.70;16.27;;;;;;;24.74;20.65;97588.00;4983065;28;20046;-82
2022/03/25 08:10:29;;;;;;;31.38;14.90;;;;;;;26.68;19.10;97580.38;4976190;28;20511;-83
2022/03/25 08:13:02;;;;;;;32.65;14.60;;;;;;;26.35;19.04;97580.88;4969701;28;20073;-83
2022/03/25 08:15:29;;;;;;;33.30;14.45;;;;;;;26.72;18.41;97562.47;4978663;28;20038;-84
2022/03/25 08:18:01;;;;;;;32.15;15.23;;;;;;;27.60;18.37;97582.09;4992540;28;20038;-84
2022/03/25 08:20:28;;;;;;;31.27;17.57;;;;;;;28.14;18.25;97587.75;4975209;28;20030;-84
2022/03/25 08:22:56;;;;;;;34.05;16.63;;;;;;;28.53;17.91;97579.66;4993491;28;20030;-84
2022/03/25 08:28:09;;;;;;;34.55;15.55;;;;;;;29.57;17.05;97560.72;4992926;28;20089;-83
2022/03/25 08:30:34;;;;;;;27.88;14.13;;;;;;;30.09;16.77;97568.06;4979489;28;20051;-85
2022/03/25 08:33:05;;;;;;;24.23;14.00;;;;;;;29.37;16.41;97577.28;4989982;28;20039;-83
2022/03/25 08:35:33;;;;;;;32.63;12.02;;;;;;;30.08;15.74;97572.75;4960856;28;20047;-84
2022/03/25 08:38:01;;;;;;;28.80;11.82;;;;;;;28.36;15.60;97541.69;4956814;28;20510;-83
2022/03/25 08:40:29;;;;;;;21.92;11.27;;;;;;;28.59;15.73;97568.84;4979599;28;20577;-84
2022/03/25 08:42:55;;;;;;;32.83;11.25;;;;;;;28.85;16.04;97563.44;4957999;28;20127;-83
2022/03/25 08:45:20;;;;;;;26.13;10.27;;;;;;;27.93;16.47;97565.81;4974109;28;20031;-83
2022/03/25 08:47:48;;;;;;;33.13;11.70;;;;;;;26.20;17.52;97566.34;4957605;28;20041;-82
2022/03/25 08:50:14;;;;;;;33.50;12.23;;;;;;;25.91;18.31;97577.31;4957115;28;20091;-82
2022/03/25 08:52:41;;;;;;;22.23;10.95;;;;;;;26.52;17.00;97569.66;4974305;28;20045;-83
2022/03/25 08:55:09;;;;;;;20.40;11.15;;;;;;;26.53;17.19;97566.72;4958308;28;20086;-83
2022/03/25 08:57:35;;;;;;;25.10;10.05;;;;;;;27.45;17.06;97584.97;4973547;28;20038;-83
2022/03/25 09:00:01;;;;;;;23.63;10.20;;;;;;;26.38;16.79;97574.13;4973636;28;20122;-83
2022/03/25 09:02:26;;;;;;;25.23;10.93;;;;;;;25.62;17.11;97566.38;4957218;28;20035;-82
2022/03/25 09:04:52;;;;;;;27.35;11.05;;;;;;;25.66;17.75;97576.75;4982845;28;20049;-83
2022/03/25 09:07:18;;;;;;;26.70;11.18;;;;;;;26.60;16.78;97592.34;4957482;28;20066;-83
2022/03/25 09:09:43;;;;;;;30.98;10.45;;;;;;;26.44;16.30;97578.00;4973355;28;20082;-84
2022/03/25 09:12:09;;;;;;;21.67;9.27;;;;;;;26.60;16.73;97584.09;4957235;28;20039;-83
2022/03/25 09:14:35;;;;;;;18.42;9.75;;;;;;;27.15;15.83;97586.16;4979356;28;20038;-83
2022/03/25 09:17:01;;;;;;;29.10;10.18;;;;;;;27.11;15.71;97573.88;4986336;28;20046;-83
2022/03/25 09:19:27;;;;;;;28.70;8.90;;;;;;;26.87;15.94;97558.66;4989659;28;20057;-84
2022/03/25 09:21:52;;;;;;;29.60;8.95;;;;;;;26.31;16.25;97552.13;4973536;28;20121;-84
2022/03/25 09:24:19;;;;;;;21.35;8.68;;;;;;;26.04;16.39;97571.16;4957148;28;20049;-82
2022/03/25 09:26:45;;;;;;;26.83;10.23;;;;;;;25.52;17.05;97546.59;4981633;28;20035;-82
2022/03/25 09:29:11;;;;;;;24.02;8.68;;;;;;;25.88;16.62;97573.06;4983772;28;20095;-82
2022/03/25 09:31:36;;;;;;;22.60;9.55;;;;;;;26.78;16.00;97553.47;4980992;28;20049;-83
2022/03/25 09:36:46;;;;;;;31.27;9.05;;;;;;;27.27;15.03;97576.31;4965041;28;20041;-83
2022/03/25 09:39:11;;;;;;;32.28;9.20;;;;;;;26.51;15.79;97563.31;4973361;28;20106;-84
2022/03/25 09:41:37;;;;;;;22.95;9.73;;;;;;;27.39;14.98;97568.38;4972265;28;20039;-82
2022/03/25 09:44:04;;;;;;;31.45;10.68;;;;;;;26.65;15.71;97558.81;4980808;28;20039;-83
2022/03/25 09:46:30;;;;;;;46.40;12.40;;;;;;;25.42;15.61;97565.16;4980655;28;20121;-82
2022/03/25 09:48:55;;;;;;;15.50;7.38;;;;;;;26.43;15.21;97574.41;4972851;28;20411;-84
2022/03/25 09:51:22;;;;;;;17.02;8.88;;;;;;;26.79;14.86;97571.63;4957241;28;20102;-82
2022/03/25 09:53:48;;;;;;;26.35;10.15;;;;;;;27.19;14.31;97557.25;4955531;28;20035;-84
2022/03/25 09:56:15;;;;;;;25.08;9.40;;;;;;;27.42;15.10;97579.88;4972494;28;20035;-83
2022/03/25 09:58:41;;;;;;;20.40;9.30;;;;;;;28.17;14.87;97575.47;4976851;28;20138;-83
2022/03/25 10:01:09;;;;;;;25.92;10.35;;;;;;;28.59;14.32;97577.09;4942472;28;20074;-83
2022/03/25 10:03:37;;;;;;;18.63;10.15;;;;;;;28.32;14.49;97565.19;4955826;28;20071;-84
2022/03/25 10:06:05;;;;;;;28.70;9.90;;;;;;;27.51;15.21;97588.81;4952472;29;20066;-83
2022/03/25 10:08:31;;;;;;;20.35;9.30;;;;;;;27.17;15.58;97589.56;4960165;28;20045;-82
2022/03/25 10:11:20;;;;;;;23.15;11.02;;;;;;;27.66;14.91;97574.94;4956568;28;20048;-83
2022/03/25 10:13:46;;;;;;;34.85;11.20;;;;;;;28.42;14.54;97571.16;4973164;28;20509;-83
2022/03/25 10:16:30;;;;;;;21.08;10.48;;;;;;;26.71;15.21;97585.47;4971881;28;20034;-83
2022/03/25 10:18:56;;;;;;;23.00;11.32;;;;;;;27.27;15.45;97570.84;4963525;28;20046;-83
2022/03/25 10:21:23;;;;;;;18.05;8.50;;;;;;;26.27;15.38;97556.28;4960297;28;20039;-83
2022/03/25 10:23:48;;;;;;;19.70;8.60;;;;;;;26.47;15.61;97583.09;4984510;28;20038;-82
2022/03/25 10:26:14;;;;;;;13.43;8.18;;;;;;;26.16;15.27;97565.00;4955490;28;20038;-83
2022/03/25 10:28:41;;;;;;;31.48;10.23;;;;;;;26.25;15.59;97563.84;4954632;28;20047;-83
2022/03/25 10:31:27;;;;;;;27.08;9.85;;;;;;;27.48;14.94;97577.34;4995043;28;20482;-83
2022/03/25 10:33:58;;;;;;;19.70;9.38;;;;;;;27.81;15.27;97561.94;4996748;28;20486;-82
2022/03/25 10:36:25;;;;;;;21.15;9.40;;;;;;;27.59;15.29;97541.94;4994797;28;20121;-83
2022/03/25 10:39:04;;;;;;;25.17;8.27;;;;;;;28.25;14.44;97565.13;4994571;28;20099;-83
2022/03/25 10:41:41;;;;;;;18.20;8.70;;;;;;;28.77;14.39;97553.47;4983259;28;20092;-82
2022/03/25 10:44:08;;;;;;;34.78;8.98;;;;;;;28.36;14.04;97556.28;4967164;28;20355;-82
2022/03/25 10:46:41;;;;;;;27.35;8.50;;;;;;;27.89;14.21;97548.88;5006424;28;20032;-82
2022/03/25 10:49:10;;;;;;;31.85;8.35;;;;;;;27.58;14.02;97569.59;4994001;28;20133;-83
2022/03/25 10:51:39;;;;;;;23.92;9.05;;;;;;;27.35;14.55;97551.44;4993781;28;20041;-82
2022/03/25 10:54:16;;;;;;;20.80;8.18;;;;;;;26.72;14.77;97526.78;4977640;28;20076;-83
2022/03/25 10:56:50;;;;;;;21.20;9.90;;;;;;;26.47;15.32;97561.16;5002870;28;20485;-85
2022/03/25 10:59:26;;;;;;;25.33;8.60;;;;;;;27.43;14.99;97558.72;5002529;28;20034;-83
2022/03/25 11:01:53;;;;;;;15.85;8.07;;;;;;;27.37;14.60;97545.75;5011418;28;20049;-83
2022/03/25 11:04:19;;;;;;;17.08;8.43;;;;;;;28.44;14.33;97547.84;4995041;28;20044;-84
2022/03/25 11:06:46;;;;;;;20.98;9.90;;;;;;;25.42;15.40;97557.81;4996124;28;20611;-84
2022/03/25 11:09:27;;;;;;;23.42;8.30;;;;;;;27.25;14.76;97528.13;4998012;28;20563;-82
2022/03/25 11:11:53;;;;;;;25.92;7.72;;;;;;;27.89;13.79;97542.50;4988006;28;20046;-82
2022/03/25 11:14:20;;;;;;;33.53;9.50;;;;;;;27.63;14.25;97526.72;5004195;28;20030;-83
2022/03/25 11:16:48;;;;;;;26.20;11.20;;;;;;;27.82;14.14;97552.63;4994896;28;20034;-86
2022/03/25 11:19:14;;;;;;;24.48;11.60;;;;;;;28.47;14.16;97541.94;4973367;28;20077;-86
2022/03/25 11:21:41;;;;;;;45.80;9.63;;;;;;;28.57;13.52;97540.69;5001572;28;20045;-85
2022/03/25 11:24:13;;;;;;;16.70;9.02;;;;;;;29.29;13.32;97536.16;5000801;28;20450;-86
2022/03/25 11:26:43;;;;;;;18.80;8.25;;;;;;;29.68;12.84;97515.09;4997451;28;20232;-84
2022/03/25 11:29:14;;;;;;;22.50;10.27;;;;;;;26.96;14.09;97496.19;5000214;28;20130;-85
2022/03/25 11:32:01;;;;;;;25.70;10.65;;;;;;;25.63;15.62;97529.69;4976629;28;20060;-84
2022/03/25 11:34:27;;;;;;;21.67;7.32;;;;;;;26.87;14.30;97503.75;5012910;28;20033;-85
2022/03/25 11:37:14;;;;;;;16.70;8.38;;;;;;;26.63;14.65;97530.72;4988197;28;20041;-85
2022/03/25 11:39:40;;;;;;;21.48;8.95;;;;;;;27.62;13.88;97513.19;5018608;28;20105;-86
2022/03/25 11:42:08;;;;;;;20.13;7.93;;;;;;;25.67;14.39;97500.88;5003891;28;20026;-85
2022/03/25 11:44:33;;;;;;;19.13;7.97;;;;;;;23.75;15.34;97490.31;4984445;28;20050;-84
2022/03/25 11:46:59;;;;;;;30.67;9.48;;;;;;;24.62;15.78;97532.00;4979770;28;20088;-85
2022/03/25 11:49:32;;;;;;;16.63;8.40;;;;;;;24.59;15.73;97537.84;5010476;28;20034;-84
2022/03/25 11:52:27;;;;;;;15.57;8.60;;;;;;;25.07;15.37;97523.75;5016873;28;20129;-84
2022/03/25 11:54:55;;;;;;;25.55;10.77;;;;;;;24.57;14.94;97529.81;5015528;28;20037;-84
2022/03/25 11:57:25;;;;;;;22.48;10.00;;;;;;;24.96;15.39;97512.41;4970934;28;20046;-86
2022/03/25 11:59:52;;;;;;;30.52;12.15;;;;;;;25.96;14.96;97520.03;4986265;28;20222;-86
2022/03/25 12:02:30;;;;;;;41.63;11.20;;;;;;;26.87;14.20;97519.34;4984730;28;20449;-86
2022/03/25 12:04:57;;;;;;;18.48;9.45;;;;;;;27.15;14.20;97527.63;5001275;28;20096;-85
2022/03/25 12:07:23;;;;;;;20.42;9.05;;;;;;;26.50;14.72;97522.34;4985181;28;20088;-86
2022/03/25 12:09:49;;;;;;;23.88;9.10;;;;;;;25.46;15.02;97504.34;4984611;28;20034;-85
2022/03/25 12:12:15;;;;;;;17.05;9.00;;;;;;;25.79;14.62;97519.38;4971510;28;20034;-85
2022/03/25 12:15:04;;;;;;;17.30;9.00;;;;;;;25.64;14.62;97526.75;5000755;28;20037;-85
2022/03/25 12:17:30;;;;;;;17.58;9.02;;;;;;;24.34;15.57;97528.09;4969768;28;20112;-85
2022/03/25 12:19:55;;;;;;;20.42;8.82;;;;;;;24.77;15.75;97527.41;4994254;28;20076;-84
2022/03/25 12:22:21;;;;;;;30.10;13.88;;;;;;;26.28;13.97;97521.47;4990976;28;20033;-85
2022/03/25 12:25:00;;;;;;;57.75;32.22;;;;;;;24.98;14.88;97513.91;5017228;28;20100;-85
2022/03/25 12:27:26;;;;;;;35.85;15.00;;;;;;;25.00;15.28;97489.97;4985568;28;20104;-85
2022/03/25 12:29:53;;;;;;;18.50;12.65;;;;;;;26.15;14.37;97496.59;4996426;28;20058;-84